createdAt,value
2019-05-25T00:01:31.601Z,14.10
2019-05-25T00:04:01.433Z,14.00
2019-05-25T00:06:31.197Z,14.00
2019-05-25T00:09:00.759Z,14.00
2019-05-25T00:11:30.529Z,13.90
2019-05-25T00:14:03.719Z,13.90
2019-05-25T00:16:33.861Z,13.80
2019-05-25T00:19:03.386Z,13.80
2019-05-25T00:21:34.813Z,13.70
2019-05-25T00:24:12.273Z,13.70
2019-05-25T00:26:36.444Z,13.60
2019-05-25T00:29:06.329Z,13.50
2019-05-25T00:31:36.321Z,13.50
2019-05-25T00:34:06.415Z,13.40
2019-05-25T00:36:36.363Z,13.40
2019-05-25T00:39:08.320Z,13.30
2019-05-25T00:41:38.146Z,13.30
2019-05-25T00:44:07.957Z,13.20
2019-05-25T00:46:37.516Z,13.20
2019-05-25T00:49:07.603Z,13.10
2019-05-25T00:51:37.073Z,13.10
2019-05-25T00:54:06.789Z,13.00
2019-05-25T00:56:36.909Z,13.00
2019-05-25T00:59:06.642Z,13.00
2019-05-25T01:01:36.421Z,12.90
2019-05-25T01:04:06.594Z,12.80
2019-05-25T01:06:36.157Z,12.80
2019-05-25T01:09:07.634Z,12.70
2019-05-25T01:11:37.486Z,12.60
2019-05-25T01:14:07.600Z,12.60
2019-05-25T01:16:37.432Z,12.50
2019-05-25T01:19:07.330Z,12.50
2019-05-25T01:21:36.849Z,12.40
2019-05-25T01:24:06.576Z,12.40
2019-05-25T01:26:36.441Z,12.40
2019-05-25T01:29:06.101Z,12.30
2019-05-25T01:31:35.892Z,12.30
2019-05-25T01:34:06.136Z,12.20
2019-05-25T01:36:35.961Z,12.20
2019-05-25T01:39:06.902Z,12.10
2019-05-25T01:41:36.759Z,12.10
2019-05-25T01:44:06.333Z,12.10
2019-05-25T01:46:35.900Z,12.00
2019-05-25T01:49:05.434Z,12.00
2019-05-25T01:51:35.037Z,11.90
2019-05-25T01:54:04.825Z,11.90
2019-05-25T01:56:34.783Z,11.80
2019-05-25T01:59:04.288Z,11.80
2019-05-25T02:01:33.869Z,11.70
2019-05-25T02:04:03.842Z,11.70
2019-05-25T02:06:33.587Z,11.70
2019-05-25T02:09:03.995Z,11.60
2019-05-25T02:11:34.303Z,11.60
2019-05-25T02:14:04.091Z,11.60
2019-05-25T02:16:33.698Z,11.50
2019-05-25T02:19:03.491Z,11.50
2019-05-25T02:21:32.996Z,11.50
2019-05-25T02:24:10.855Z,11.50
2019-05-25T02:26:40.737Z,11.40
2019-05-25T02:29:10.719Z,11.40
2019-05-25T02:31:40.486Z,11.40
2019-05-25T02:34:10.556Z,11.40
2019-05-25T02:36:41.353Z,11.30
2019-05-25T02:39:11.104Z,11.30
2019-05-25T02:41:40.599Z,11.20
2019-05-25T02:44:10.005Z,11.20
2019-05-25T02:46:39.647Z,11.20
2019-05-25T02:49:09.384Z,11.20
2019-05-25T02:51:39.094Z,11.20
2019-05-25T02:54:08.789Z,11.20
2019-05-25T02:56:38.410Z,11.10
2019-05-25T02:59:07.926Z,11.10
2019-05-25T03:01:37.464Z,11.10
2019-05-25T03:04:07.049Z,11.10
2019-05-25T03:06:37.234Z,11.10
2019-05-25T03:09:07.888Z,11.10
2019-05-25T03:11:38.092Z,11.10
2019-05-25T03:14:07.516Z,11.10
2019-05-25T03:16:37.454Z,11.10
2019-05-25T03:19:07.110Z,11.10
2019-05-25T03:21:36.999Z,11.10
2019-05-25T03:24:06.684Z,11.10
2019-05-25T03:26:36.426Z,11.10
2019-05-25T03:29:05.905Z,11.00
2019-05-25T03:31:35.474Z,11.00
2019-05-25T03:34:05.265Z,11.00
2019-05-25T03:36:34.753Z,10.90
2019-05-25T03:39:05.994Z,10.90
2019-05-25T03:41:35.570Z,10.90
2019-05-25T03:44:04.933Z,10.90
2019-05-25T03:46:34.259Z,10.80
2019-05-25T03:49:03.605Z,10.80
2019-05-25T03:51:32.955Z,10.80
2019-05-25T03:54:02.391Z,10.80
2019-05-25T03:56:31.900Z,10.80
2019-05-25T03:59:01.328Z,10.80
2019-05-25T04:01:30.826Z,10.80
2019-05-25T04:04:00.219Z,10.80
2019-05-25T04:06:29.624Z,10.80
2019-05-25T04:08:59.191Z,10.90
2019-05-25T04:11:28.566Z,10.90
2019-05-25T04:13:57.981Z,10.90
2019-05-25T04:16:27.773Z,11.00
2019-05-25T04:18:57.526Z,11.00
2019-05-25T04:21:26.964Z,11.00
2019-05-25T04:23:57.306Z,11.10
2019-05-25T04:26:27.601Z,11.10
2019-05-25T04:28:57.574Z,11.20
2019-05-25T04:31:28.286Z,11.30
2019-05-25T04:33:57.663Z,11.40
2019-05-25T04:36:27.581Z,11.40
2019-05-25T04:38:57.404Z,11.50
2019-05-25T04:41:28.808Z,11.60
2019-05-25T04:43:58.739Z,11.70
2019-05-25T04:46:30.734Z,11.80
2019-05-25T04:49:00.672Z,11.90
2019-05-25T04:51:30.316Z,12.20
2019-05-25T04:54:00.085Z,12.70
2019-05-25T04:56:39.519Z,13.20
2019-05-25T04:59:01.595Z,13.40
2019-05-25T05:01:31.422Z,13.50
2019-05-25T05:04:01.079Z,13.50
2019-05-25T05:06:31.004Z,13.40
2019-05-25T05:09:00.583Z,13.30
2019-05-25T05:11:33.405Z,13.20
2019-05-25T05:14:03.271Z,13.10
2019-05-25T05:16:33.482Z,13.00
2019-05-25T05:19:03.713Z,12.90
2019-05-25T05:21:33.324Z,12.80
2019-05-25T05:24:03.102Z,12.90
2019-05-25T05:26:33.736Z,13.40
2019-05-25T05:29:03.496Z,14.30
2019-05-25T05:31:33.271Z,15.60
2019-05-25T05:34:03.297Z,17.10
2019-05-25T05:36:33.869Z,18.50
2019-05-25T05:39:06.314Z,19.70
2019-05-25T05:41:40.665Z,20.50
2019-05-25T05:44:11.626Z,21.50
2019-05-25T05:46:41.805Z,21.80
2019-05-25T05:49:12.506Z,21.60
2019-05-25T05:51:43.885Z,21.00
2019-05-25T05:54:15.321Z,20.40
2019-05-25T05:56:47.719Z,19.70
2019-05-25T05:59:17.826Z,19.10
2019-05-25T06:01:47.553Z,18.60
2019-05-25T06:04:19.998Z,18.00
2019-05-25T06:06:49.607Z,17.80
2019-05-25T06:09:19.325Z,18.20
2019-05-25T06:11:48.995Z,19.00
2019-05-25T06:14:18.895Z,20.30
2019-05-25T06:16:48.854Z,21.40
2019-05-25T06:19:18.622Z,21.90
2019-05-25T06:21:48.306Z,22.60
2019-05-25T06:24:18.033Z,23.50
2019-05-25T06:26:47.849Z,24.40
2019-05-25T06:29:17.852Z,25.30
2019-05-25T06:31:47.661Z,26.20
2019-05-25T06:34:17.448Z,26.60
2019-05-25T06:36:47.038Z,26.50
2019-05-25T06:39:16.735Z,26.50
2019-05-25T06:41:46.259Z,26.50
2019-05-25T06:44:16.044Z,26.20
2019-05-25T06:46:46.382Z,25.60
2019-05-25T06:49:17.156Z,24.90
2019-05-25T06:51:47.232Z,24.20
2019-05-25T06:54:17.325Z,23.50
2019-05-25T06:56:47.209Z,22.80
2019-05-25T06:59:16.723Z,21.50
2019-05-25T07:01:47.329Z,20.70
2019-05-25T07:04:17.243Z,20.30
2019-05-25T07:06:46.807Z,20.00
2019-05-25T07:09:16.722Z,19.80
2019-05-25T07:11:46.096Z,20.10
2019-05-25T07:14:16.109Z,20.40
2019-05-25T07:16:45.957Z,20.90
2019-05-25T07:19:15.513Z,21.40
2019-05-25T07:21:45.207Z,22.00
2019-05-25T07:24:15.192Z,22.20
2019-05-25T07:26:44.893Z,22.20
2019-05-25T07:29:14.795Z,22.30
2019-05-25T07:31:44.920Z,21.30
2019-05-25T07:34:14.526Z,20.80
2019-05-25T07:36:43.900Z,20.20
2019-05-25T07:39:13.403Z,19.60
2019-05-25T07:41:43.458Z,19.20
2019-05-25T07:44:12.998Z,19.30
2019-05-25T07:46:42.992Z,19.60
2019-05-25T07:49:12.443Z,20.20
2019-05-25T07:51:42.125Z,20.70
2019-05-25T07:54:12.012Z,21.40
2019-05-25T07:56:41.599Z,22.40
2019-05-25T07:59:11.607Z,23.40
2019-05-25T08:01:41.271Z,23.70
2019-05-25T08:04:11.501Z,23.20
2019-05-25T08:06:41.218Z,23.10
2019-05-25T08:09:11.151Z,22.70
2019-05-25T08:11:40.713Z,21.90
2019-05-25T08:14:10.301Z,21.30
2019-05-25T08:16:40.282Z,20.60
2019-05-25T08:19:10.079Z,20.00
2019-05-25T08:21:42.564Z,19.60
2019-05-25T08:24:12.270Z,19.70
2019-05-25T08:26:41.652Z,20.00
2019-05-25T08:29:11.491Z,20.50
2019-05-25T08:31:41.270Z,21.10
2019-05-25T08:34:10.978Z,21.80
2019-05-25T08:36:40.847Z,22.70
2019-05-25T08:39:11.006Z,23.50
2019-05-25T08:41:41.070Z,24.40
2019-05-25T08:44:11.042Z,25.50
2019-05-25T08:46:40.931Z,26.80
2019-05-25T08:49:12.143Z,27.20
2019-05-25T08:51:42.123Z,27.10
2019-05-25T08:54:11.657Z,27.10
2019-05-25T08:56:41.971Z,26.60
2019-05-25T08:59:12.485Z,26.00
2019-05-25T09:01:42.565Z,25.70
2019-05-25T09:04:12.343Z,25.70
2019-05-25T09:06:42.784Z,25.50
2019-05-25T09:09:12.812Z,25.30
2019-05-25T09:11:45.556Z,24.90
2019-05-25T09:14:15.966Z,24.80
2019-05-25T09:16:45.894Z,23.90
2019-05-25T09:19:15.835Z,23.80
2019-05-25T09:22:01.401Z,24.20
2019-05-25T09:24:18.530Z,24.90
2019-05-25T09:26:48.334Z,26.00
2019-05-25T09:29:18.143Z,27.10
2019-05-25T09:31:48.015Z,28.20
2019-05-25T09:34:17.650Z,29.10
2019-05-25T09:36:47.770Z,28.60
2019-05-25T09:39:17.777Z,28.50
2019-05-25T09:41:47.433Z,28.30
2019-05-25T09:44:17.432Z,27.40
2019-05-25T09:46:48.823Z,26.70
2019-05-25T09:49:18.623Z,26.70
2019-05-25T09:51:48.787Z,26.10
2019-05-25T09:54:18.623Z,25.90
2019-05-25T09:56:50.054Z,26.30
2019-05-25T09:59:20.671Z,27.70
2019-05-25T10:01:50.217Z,28.50
2019-05-25T10:04:21.696Z,29.20
2019-05-25T10:06:51.116Z,28.50
2019-05-25T10:09:21.156Z,28.90
2019-05-25T10:11:50.723Z,28.40
2019-05-25T10:14:20.188Z,28.10
2019-05-25T10:16:49.588Z,28.40
2019-05-25T10:19:18.985Z,29.40
2019-05-25T10:21:48.524Z,31.00
2019-05-25T10:24:18.788Z,32.20
2019-05-25T10:26:48.472Z,33.50
2019-05-25T10:29:18.354Z,33.80
2019-05-25T10:31:48.328Z,33.00
2019-05-25T10:34:17.984Z,33.00
2019-05-25T10:36:48.007Z,33.10
2019-05-25T10:39:17.625Z,33.20
2019-05-25T10:41:47.206Z,33.80
2019-05-25T10:44:17.451Z,33.20
2019-05-25T10:46:47.096Z,33.40
2019-05-25T10:49:17.142Z,32.50
2019-05-25T10:51:47.259Z,32.30
2019-05-25T10:54:16.933Z,32.30
2019-05-25T10:56:47.390Z,31.20
2019-05-25T10:59:17.532Z,30.30
2019-05-25T11:01:47.485Z,29.20
2019-05-25T11:04:16.928Z,28.00
2019-05-25T11:06:46.663Z,27.60
2019-05-25T11:51:41.219Z,25.30
2019-05-25T11:54:10.566Z,24.60
2019-05-25T11:56:39.957Z,24.40
2019-05-25T11:59:09.366Z,24.60
2019-05-25T12:01:38.764Z,24.80
2019-05-25T12:04:08.241Z,25.20
2019-05-25T12:06:37.670Z,25.30
2019-05-25T12:09:08.371Z,25.60
2019-05-25T12:11:37.745Z,25.70
2019-05-25T12:14:07.352Z,25.30
2019-05-25T12:16:36.656Z,24.80
2019-05-25T12:19:06.072Z,24.00
2019-05-25T12:21:35.481Z,23.00
2019-05-25T12:24:04.956Z,22.70
2019-05-25T12:26:34.303Z,22.80
2019-05-25T12:29:03.758Z,23.00
2019-05-25T12:31:33.166Z,23.20
2019-05-25T12:34:04.323Z,23.20
2019-05-25T12:36:33.940Z,22.90
2019-05-25T12:39:03.643Z,22.70
2019-05-25T12:41:33.140Z,22.70
2019-05-25T12:44:02.660Z,23.00
2019-05-25T12:46:32.025Z,23.30
2019-05-25T12:49:03.148Z,23.30
2019-05-25T12:51:32.680Z,23.30
2019-05-25T12:54:02.011Z,23.30
2019-05-25T12:56:31.443Z,23.40
2019-05-25T12:59:01.947Z,23.60
2019-05-25T13:01:31.340Z,23.80
2019-05-25T13:04:00.700Z,24.00
2019-05-25T13:06:30.064Z,24.00
2019-05-25T13:08:59.353Z,23.80
2019-05-25T13:11:28.715Z,23.60
2019-05-25T13:14:06.321Z,23.50
2019-05-25T13:16:29.155Z,23.50
2019-05-25T13:18:58.460Z,23.70
2019-05-25T13:21:27.903Z,23.80
2019-05-25T13:23:57.321Z,24.10
2019-05-25T13:26:26.818Z,24.20
2019-05-25T13:28:56.421Z,24.20
2019-05-25T13:31:25.734Z,24.20
2019-05-25T13:33:55.115Z,24.20
2019-05-25T13:36:24.451Z,24.40
2019-05-25T13:38:53.798Z,24.30
2019-05-25T13:41:23.323Z,24.20
2019-05-25T13:43:52.745Z,24.30
2019-05-25T13:46:23.189Z,24.40
2019-05-25T13:48:52.590Z,24.50
2019-05-25T13:51:21.908Z,24.50
2019-05-25T13:53:51.316Z,24.30
2019-05-25T13:56:20.701Z,24.20
2019-05-25T13:58:50.120Z,24.20
2019-05-25T14:01:28.047Z,24.00
2019-05-25T14:03:50.478Z,24.00
2019-05-25T14:06:19.821Z,24.00
2019-05-25T14:08:49.138Z,23.90
2019-05-25T14:11:18.726Z,23.70
2019-05-25T14:13:48.140Z,23.40
2019-05-25T14:16:17.860Z,23.20
2019-05-25T14:18:47.201Z,23.10
2019-05-25T14:21:16.557Z,23.00
2019-05-25T14:23:46.047Z,22.90
2019-05-25T14:26:15.365Z,23.00
2019-05-25T14:28:44.958Z,22.90
2019-05-25T14:31:14.333Z,22.60
2019-05-25T14:33:43.765Z,22.50
2019-05-25T14:36:13.143Z,22.50
2019-05-25T14:38:42.580Z,22.40
2019-05-25T14:41:14.847Z,22.40
2019-05-25T14:43:44.220Z,22.30
2019-05-25T14:46:26.955Z,22.20
2019-05-25T14:48:44.734Z,22.10
2019-05-25T14:51:14.090Z,22.10
2019-05-25T14:53:43.486Z,22.30
2019-05-25T14:56:12.870Z,22.30
2019-05-25T14:58:42.278Z,22.40
2019-05-25T15:01:12.236Z,22.30
2019-05-25T15:03:41.638Z,22.30
2019-05-25T15:06:11.032Z,22.10
2019-05-25T15:08:40.523Z,22.00
2019-05-25T15:11:10.930Z,22.00
2019-05-25T15:13:40.808Z,22.00
2019-05-25T15:16:10.300Z,22.00
2019-05-25T15:18:39.693Z,22.10
2019-05-25T15:21:09.092Z,22.10
2019-05-25T15:23:38.516Z,22.30
2019-05-25T15:26:07.816Z,22.30
2019-05-25T15:28:37.156Z,22.30
2019-05-25T15:31:06.532Z,22.30
2019-05-25T15:33:36.605Z,22.00
2019-05-25T15:36:06.101Z,21.80
2019-05-25T15:38:35.493Z,21.80
2019-05-25T15:41:04.943Z,21.80
2019-05-25T15:43:34.473Z,21.70
2019-05-25T15:46:04.063Z,21.40
2019-05-25T15:48:33.351Z,21.30
2019-05-25T15:51:02.716Z,21.20
2019-05-25T15:53:32.078Z,21.20
2019-05-25T15:56:01.414Z,21.20
2019-05-25T15:58:32.184Z,21.30
2019-05-25T16:01:01.606Z,21.40
2019-05-25T16:03:31.319Z,21.50
2019-05-25T16:06:00.907Z,21.40
2019-05-25T16:08:30.284Z,21.40
2019-05-25T16:10:59.579Z,21.50
2019-05-25T16:13:29.007Z,21.20
2019-05-25T16:15:58.320Z,21.00
2019-05-25T16:18:27.679Z,20.90
2019-05-25T16:20:57.001Z,20.90
2019-05-25T16:23:26.376Z,21.00
2019-05-25T16:25:55.750Z,20.80
2019-05-25T16:28:25.080Z,20.70
2019-05-25T16:30:54.593Z,20.70
2019-05-25T16:33:24.292Z,20.80
2019-05-25T16:35:57.755Z,20.80
2019-05-25T16:38:24.792Z,20.80
2019-05-25T16:40:54.428Z,20.70
2019-05-25T16:43:23.766Z,20.60
2019-05-25T16:45:53.185Z,20.40
2019-05-25T16:48:22.649Z,20.20
2019-05-25T16:50:52.014Z,20.10
2019-05-25T16:53:21.380Z,20.10
2019-05-25T16:55:54.439Z,20.10
2019-05-25T16:58:22.146Z,20.10
2019-05-25T17:00:51.608Z,20.00
2019-05-25T17:03:28.175Z,20.00
2019-05-25T17:05:52.296Z,20.10
2019-05-25T17:08:21.769Z,20.20
2019-05-25T17:10:51.113Z,20.30
2019-05-25T17:13:20.533Z,20.50
2019-05-25T17:15:50.053Z,20.60
2019-05-25T17:18:19.517Z,20.60
2019-05-25T17:20:48.830Z,20.60
2019-05-25T17:23:18.159Z,20.60
2019-05-25T17:25:47.541Z,20.50
2019-05-25T17:28:16.843Z,20.40
2019-05-25T17:30:46.742Z,20.40
2019-05-25T17:33:16.276Z,20.40
2019-05-25T17:35:45.821Z,20.40
2019-05-25T17:38:16.400Z,20.30
2019-05-25T17:40:45.767Z,20.30
2019-05-25T17:43:15.159Z,20.20
2019-05-25T17:45:45.721Z,20.20
2019-05-25T17:48:15.151Z,20.10
2019-05-25T17:50:44.598Z,20.10
2019-05-25T17:53:14.028Z,20.10
2019-05-25T17:55:43.390Z,20.10
2019-05-25T17:58:12.773Z,20.10
2019-05-25T18:00:44.807Z,20.00
2019-05-25T18:03:14.268Z,20.10
2019-05-25T18:05:43.652Z,20.10
2019-05-25T18:08:13.072Z,20.20
2019-05-25T18:10:52.779Z,20.30
2019-05-25T18:13:13.573Z,20.30
2019-05-25T18:15:43.058Z,20.30
2019-05-25T18:18:13.224Z,20.30
2019-05-25T18:20:42.908Z,20.30
2019-05-25T18:23:12.345Z,20.30
2019-05-25T18:25:41.766Z,20.40
2019-05-25T18:28:11.152Z,20.30
2019-05-25T18:30:40.478Z,20.30
2019-05-25T18:33:09.790Z,20.30
2019-05-25T18:35:39.180Z,20.30
2019-05-25T18:38:08.513Z,20.30
2019-05-25T18:40:37.859Z,20.20
2019-05-25T18:43:07.183Z,20.20
2019-05-25T18:45:36.634Z,20.10
2019-05-25T18:48:06.099Z,20.00
2019-05-25T18:50:35.555Z,19.90
2019-05-25T18:53:05.397Z,19.80
2019-05-25T18:55:36.096Z,19.70
2019-05-25T18:58:05.441Z,19.60
2019-05-25T19:00:34.942Z,19.50
2019-05-25T19:03:04.549Z,19.40
2019-05-25T19:05:34.021Z,19.30
2019-05-25T19:08:04.743Z,19.10
2019-05-25T19:10:34.093Z,19.10
2019-05-25T19:13:03.559Z,19.00
2019-05-25T19:15:33.075Z,19.00
2019-05-25T19:18:02.476Z,18.90
2019-05-25T19:20:31.915Z,18.80
2019-05-25T19:23:01.318Z,18.80
2019-05-25T19:25:30.740Z,18.70
2019-05-25T19:28:00.208Z,18.70
2019-05-25T19:30:29.826Z,18.60
2019-05-25T19:32:59.270Z,18.60
2019-05-25T19:35:28.751Z,18.60
2019-05-25T19:37:58.132Z,18.50
2019-05-25T19:40:27.479Z,18.40
2019-05-25T19:42:56.854Z,18.30
2019-05-25T19:45:27.311Z,18.30
2019-05-25T19:47:56.701Z,18.20
2019-05-25T19:50:26.176Z,18.00
2019-05-25T19:52:55.549Z,17.90
2019-05-25T19:55:24.939Z,17.70
2019-05-25T19:57:54.341Z,17.60
2019-05-25T20:00:23.910Z,17.50
2019-05-25T20:02:53.312Z,17.30
2019-05-25T20:05:22.707Z,17.30
2019-05-25T20:07:55.158Z,17.10
2019-05-25T20:10:24.595Z,17.00
2019-05-25T20:12:53.966Z,16.90
2019-05-25T20:15:23.388Z,16.80
2019-05-25T20:17:52.960Z,16.70
2019-05-25T20:20:22.492Z,16.60
2019-05-25T20:22:51.916Z,16.50
2019-05-25T20:25:21.289Z,16.40
2019-05-25T20:27:50.762Z,16.30
2019-05-25T20:30:20.392Z,16.30
2019-05-25T20:32:49.776Z,16.30
2019-05-25T20:35:32.503Z,16.20
2019-05-25T20:37:51.729Z,16.10
2019-05-25T20:40:21.132Z,16.00
2019-05-25T20:42:50.463Z,15.90
2019-05-25T20:45:19.844Z,15.90
2019-05-25T20:47:49.199Z,15.80
2019-05-25T20:50:18.724Z,15.70
2019-05-25T20:52:48.079Z,15.70
2019-05-25T20:55:17.455Z,15.60
2019-05-25T20:57:46.847Z,15.50
2019-05-25T21:00:16.318Z,15.40
2019-05-25T21:02:45.631Z,15.40
2019-05-25T21:05:15.113Z,15.30
2019-05-25T21:07:44.512Z,15.20
2019-05-25T21:10:14.275Z,15.10
2019-05-25T21:12:43.618Z,15.10
2019-05-25T21:15:15.064Z,15.00
2019-05-25T21:17:44.435Z,14.90
2019-05-25T21:20:14.714Z,14.80
2019-05-25T21:22:44.161Z,14.80
2019-05-25T21:25:13.573Z,14.70
2019-05-25T21:27:44.763Z,14.60
2019-05-25T21:30:14.666Z,14.50
2019-05-25T21:32:44.051Z,14.40
2019-05-25T21:35:13.457Z,14.30
2019-05-25T21:37:42.975Z,14.30
2019-05-25T21:40:12.468Z,14.20
2019-05-25T21:42:41.892Z,14.20
2019-05-25T21:45:11.607Z,14.10
2019-05-25T21:47:40.992Z,14.10
2019-05-25T21:50:10.714Z,14.00
2019-05-25T21:52:40.058Z,14.00
2019-05-25T21:55:09.806Z,13.90
2019-05-25T21:57:39.174Z,13.90
2019-05-25T22:00:10.978Z,13.80
2019-05-25T22:02:40.372Z,13.80
2019-05-25T22:05:10.181Z,13.80
2019-05-25T22:07:39.528Z,13.80
2019-05-25T22:10:09.113Z,13.70
2019-05-25T22:12:40.256Z,13.70
2019-05-25T22:15:10.632Z,13.70
2019-05-25T22:17:40.698Z,13.60
2019-05-25T22:20:11.629Z,13.50
2019-05-25T22:22:41.055Z,13.50
2019-05-25T22:25:10.835Z,13.40
2019-05-25T22:27:40.228Z,13.40
2019-05-25T22:30:09.764Z,13.30
2019-05-25T22:32:39.135Z,13.30
2019-05-25T22:35:08.668Z,13.20
2019-05-25T22:37:38.023Z,13.20
2019-05-25T22:40:07.818Z,13.10
2019-05-25T22:42:37.242Z,13.00
2019-05-25T22:45:06.672Z,13.00
2019-05-25T22:47:36.113Z,12.90
2019-05-25T22:50:05.731Z,12.90
2019-05-25T22:52:35.171Z,12.80
2019-05-25T22:55:04.731Z,12.70
2019-05-25T22:57:34.061Z,12.70
2019-05-25T23:00:03.672Z,12.70
2019-05-25T23:02:33.204Z,12.60
2019-05-25T23:05:02.548Z,12.60
2019-05-25T23:07:31.951Z,12.50
2019-05-25T23:10:01.331Z,12.50
2019-05-25T23:12:30.687Z,12.50
2019-05-25T23:15:00.162Z,12.40
2019-05-25T23:17:29.534Z,12.40
2019-05-25T23:19:58.932Z,12.30
2019-05-25T23:22:29.750Z,12.30
2019-05-25T23:24:59.179Z,12.30
2019-05-25T23:27:28.590Z,12.30
2019-05-25T23:29:57.977Z,12.30
2019-05-25T23:32:27.388Z,12.20
2019-05-25T23:34:56.824Z,12.20
2019-05-25T23:37:26.195Z,12.20
2019-05-25T23:39:56.699Z,12.20
2019-05-25T23:42:26.086Z,12.20
2019-05-25T23:44:55.480Z,12.10
2019-05-25T23:47:24.927Z,12.10
2019-05-25T23:49:54.346Z,12.10
2019-05-25T23:52:23.866Z,12.00
2019-05-25T23:54:53.216Z,12.00
2019-05-25T23:57:23.871Z,11.90
2019-05-25T23:59:53.468Z,11.90
